Time;durP1;ratioP1;P1;durP2;ratioP2;P2;SDS_P1;SDS_P2;PMS_P1;PMS_P2;Temp;Humidity;BMP_temperature;BMP_pressure;BME280_temperature;BME280_humidity;BME280_pressure;Samples;Min_cycle;Max_cycle;Signal;HPM_P1;HPM_P2
2023/10/14 00:01:35;;;;;;;4.18;1.00;;;14.50;99.90;;;;;;5073124;28;20041;-75
2023/10/14 00:04:09;;;;;;;2.88;0.85;;;14.50;99.90;;;;;;5073192;28;20471;-75
2023/10/14 00:06:39;;;;;;;5.20;1.20;;;14.50;99.90;;;;;;5056758;28;20083;-74
2023/10/14 00:09:11;;;;;;;2.22;0.77;;;14.50;99.90;;;;;;5072978;28;20131;-75
2023/10/14 00:11:46;;;;;;;3.42;0.98;;;14.40;99.90;;;;;;5056346;28;20170;-74
2023/10/14 00:14:16;;;;;;;5.28;1.58;;;14.40;99.90;;;;;;5073829;28;20097;-75
2023/10/14 00:16:51;;;;;;;8.00;1.13;;;14.40;99.90;;;;;;5074089;28;20480;-74
2023/10/14 00:19:24;;;;;;;4.95;1.30;;;14.40;99.90;;;;;;5055838;28;20037;-74
2023/10/14 00:21:50;;;;;;;3.92;1.15;;;14.40;99.90;;;;;;5069192;28;20267;-75
2023/10/14 00:24:26;;;;;;;8.25;1.42;;;14.40;99.90;;;;;;5070225;28;20036;-75
2023/10/14 00:26:53;;;;;;;8.15;1.30;;;14.40;99.90;;;;;;5073453;28;20118;-75
2023/10/14 00:29:19;;;;;;;5.00;1.23;;;14.30;99.90;;;;;;5073253;28;20505;-74
2023/10/14 00:31:53;;;;;;;6.22;1.30;;;14.30;99.90;;;;;;5072660;28;20037;-74
2023/10/14 00:34:22;;;;;;;5.70;1.30;;;14.30;99.90;;;;;;5072830;28;20041;-74
2023/10/14 00:36:56;;;;;;;7.82;1.35;;;14.30;99.90;;;;;;5066171;28;20532;-75
2023/10/14 00:39:32;;;;;;;6.05;1.70;;;14.20;99.90;;;;;;5072330;28;20029;-74
2023/10/14 00:42:00;;;;;;;4.30;1.30;;;14.20;99.90;;;;;;5074602;28;20396;-74
2023/10/14 00:44:26;;;;;;;4.30;1.48;;;14.20;99.90;;;;;;5070684;28;20040;-75
2023/10/14 00:46:54;;;;;;;7.03;1.20;;;14.00;99.90;;;;;;5066519;28;20113;-75
2023/10/14 00:49:42;;;;;;;3.78;1.27;;;14.10;99.90;;;;;;5073400;28;20044;-74
2023/10/14 00:52:15;;;;;;;5.90;1.40;;;14.10;99.90;;;;;;5055306;28;20051;-74
2023/10/14 00:59:48;;;;;;;10.73;1.70;;;14.00;99.90;;;;;;5071466;28;20037;-75
2023/10/14 01:02:14;;;;;;;11.75;1.70;;;14.00;99.90;;;;;;5072167;28;20115;-75
2023/10/14 01:04:48;;;;;;;5.30;1.40;;;14.00;99.90;;;;;;5072684;28;20048;-75
2023/10/14 01:07:14;;;;;;;6.50;1.60;;;13.90;99.90;;;;;;5068240;28;20040;-75
2023/10/14 01:12:16;;;;;;;7.00;1.80;;;13.90;99.90;;;;;;5072965;28;20434;-75
2023/10/14 01:14:52;;;;;;;9.48;1.67;;;14.20;99.90;;;;;;5054227;28;20048;-74
2023/10/14 01:17:29;;;;;;;10.05;2.00;;;13.80;99.90;;;;;;5054904;28;20588;-75
2023/10/14 01:20:00;;;;;;;8.90;1.85;;;13.80;99.90;;;;;;5079137;28;20087;-74
2023/10/14 01:22:29;;;;;;;10.88;1.85;;;13.80;99.90;;;;;;5072376;28;20040;-75
2023/10/14 01:25:05;;;;;;;9.32;1.80;;;13.80;99.90;;;;;;5072122;28;20108;-75
2023/10/14 01:27:34;;;;;;;8.98;1.80;;;13.70;99.90;;;;;;5054638;28;20033;-74
2023/10/14 01:29:59;;;;;;;5.90;2.03;;;13.70;99.90;;;;;;5071224;28;20455;-74
2023/10/14 01:32:49;;;;;;;11.38;1.95;;;13.70;99.90;;;;;;5072330;28;20029;-74
2023/10/14 01:35:32;;;;;;;8.98;1.85;;;13.60;99.90;;;;;;5097110;28;20048;-75
2023/10/14 01:37:59;;;;;;;11.02;2.00;;;13.60;99.90;;;;;;5066286;28;20449;-74
2023/10/14 01:40:32;;;;;;;11.70;2.13;;;13.80;99.90;;;;;;5070152;28;20119;-74
2023/10/14 01:43:08;;;;;;;12.55;2.45;;;13.50;99.90;;;;;;5053851;28;20039;-74
2023/10/14 01:48:14;;;;;;;14.13;2.80;;;13.30;99.90;;;;;;5072322;28;20055;-74
2023/10/14 01:50:50;;;;;;;8.88;2.17;;;13.30;99.90;;;;;;5071885;28;20527;-75
2023/10/14 01:53:18;;;;;;;11.45;1.70;;;13.30;99.90;;;;;;5070770;28;20493;-74
2023/10/14 01:55:52;;;;;;;13.73;2.10;;;13.20;99.90;;;;;;5066757;28;20123;-74
2023/10/14 01:58:23;;;;;;;12.90;2.25;;;13.20;99.90;;;;;;5068778;28;20085;-74
2023/10/14 02:03:41;;;;;;;18.63;2.45;;;13.10;99.90;;;;;;5071084;28;20051;-74
2023/10/14 02:06:18;;;;;;;15.02;1.92;;;13.00;99.90;;;;;;5054005;28;20071;-74
2023/10/14 02:08:44;;;;;;;12.43;2.55;;;13.00;99.90;;;;;;5065685;28;20127;-75
2023/10/14 02:11:10;;;;;;;14.13;2.80;;;12.90;99.90;;;;;;5070633;28;20055;-74
2023/10/14 02:13:39;;;;;;;13.52;2.35;;;12.90;99.90;;;;;;5071092;28;20040;-75
2023/10/14 02:16:08;;;;;;;9.57;2.00;;;12.90;99.90;;;;;;5070077;28;20400;-74
2023/10/14 02:18:42;;;;;;;13.77;2.33;;;12.90;99.90;;;;;;5068931;28;20065;-74
2023/10/14 02:21:11;;;;;;;13.45;2.67;;;12.90;99.90;;;;;;5071599;28;20067;-75
2023/10/14 02:23:47;;;;;;;11.13;2.13;;;12.90;99.90;;;;;;5070255;28;20071;-77
2023/10/14 02:26:33;;;;;;;12.57;2.10;;;12.90;99.90;;;;;;5071519;28;20046;-74
2023/10/14 02:29:06;;;;;;;13.43;2.45;;;12.80;99.90;;;;;;5047419;28;20032;-74
2023/10/14 02:31:35;;;;;;;15.25;2.67;;;12.80;99.90;;;;;;5071071;28;20047;-74
2023/10/14 02:34:07;;;;;;;9.88;2.42;;;12.70;99.90;;;;;;5053224;28;20045;-74
2023/10/14 02:36:35;;;;;;;8.93;2.13;;;12.70;99.90;;;;;;5071198;28;20489;-74
2023/10/14 02:39:14;;;;;;;17.20;2.83;;;12.60;99.90;;;;;;5071659;28;20063;-75
2023/10/14 02:42:08;;;;;;;13.05;2.53;;;12.50;99.90;;;;;;5054376;28;20029;-74
2023/10/14 02:44:54;;;;;;;14.27;2.42;;;12.50;99.90;;;;;;5070182;28;20044;-74
2023/10/14 02:47:20;;;;;;;14.60;2.50;;;12.50;99.90;;;;;;5053214;28;20044;-75
2023/10/14 02:50:04;;;;;;;13.30;2.28;;;12.40;99.90;;;;;;5067733;28;20413;-75
2023/10/14 02:52:31;;;;;;;16.98;2.55;;;12.40;99.90;;;;;;5053145;28;20047;-75
2023/10/14 02:57:40;;;;;;;10.77;2.28;;;12.30;99.90;;;;;;5069975;28;20045;-74
2023/10/14 03:00:09;;;;;;;19.40;2.55;;;12.20;99.90;;;;;;5071106;28;20047;-75
2023/10/14 03:05:42;;;;;;;10.65;2.63;;;12.20;99.90;;;;;;4986902;28;20046;-75
2023/10/14 03:08:09;;;;;;;;;;;12.10;99.90;;;;;;5060462;28;20055;-75
2023/10/14 03:10:45;;;;;;;12.55;2.22;;;12.00;99.90;;;;;;5071031;28;19917;-74
2023/10/14 03:13:12;;;;;;;11.63;2.25;;;12.00;99.90;;;;;;5071477;28;20040;-74
2023/10/14 03:15:39;;;;;;;14.40;1.90;;;12.00;99.90;;;;;;5071298;28;20413;-74
2023/10/14 03:18:06;;;;;;;12.27;2.05;;;11.90;99.90;;;;;;5071350;28;20045;-74
2023/10/14 03:20:34;;;;;;;11.68;2.28;;;11.90;99.90;;;;;;5071017;28;20093;-74
2023/10/14 03:25:39;;;;;;;13.60;2.38;;;11.80;99.90;;;;;;5070378;28;20107;-75
2023/10/14 03:28:12;;;;;;;12.90;1.92;;;11.80;99.90;;;;;;5071259;28;20028;-74
2023/10/14 03:30:45;;;;;;;11.90;2.05;;;11.80;99.90;;;;;;5049608;28;20032;-74
2023/10/14 03:33:19;;;;;;;11.05;1.92;;;11.70;99.90;;;;;;5069676;28;20043;-74
2023/10/14 03:35:54;;;;;;;9.40;1.85;;;11.70;99.90;;;;;;5060917;28;20524;-74
2023/10/14 03:38:25;;;;;;;10.02;1.70;;;11.70;99.90;;;;;;5070406;28;20040;-74
2023/10/14 03:41:03;;;;;;;12.63;2.35;;;11.70;99.90;;;;;;5068552;28;20201;-75
2023/10/14 03:44:09;;;;;;;11.57;2.00;;;11.60;99.90;;;;;;5052086;28;20081;-74
2023/10/14 03:46:32;;;;;;;9.15;1.70;;;11.60;99.90;;;;;;5073353;28;20190;-75
2023/10/14 03:49:11;;;;;;;12.05;2.05;;;11.60;99.90;;;;;;5074113;28;20085;-74
2023/10/14 03:51:41;;;;;;;13.98;2.05;;;11.50;99.90;;;;;;5075431;28;20036;-75
2023/10/14 03:54:08;;;;;;;11.18;1.60;;;11.50;99.90;;;;;;5075129;28;20121;-74
2023/10/14 03:56:35;;;;;;;10.52;2.15;;;11.90;99.90;;;;;;5070511;28;20507;-74
2023/10/14 03:59:10;;;;;;;10.27;1.88;;;11.50;99.90;;;;;;5074382;28;20035;-74
2023/10/14 04:04:18;;;;;;;13.73;1.75;;;11.50;99.90;;;;;;5074158;28;20178;-74
2023/10/14 04:06:51;;;;;;;14.68;2.03;;;11.50;99.90;;;;;;5074129;28;20047;-74
2023/10/14 04:09:24;;;;;;;8.02;1.67;;;11.40;99.90;;;;;;5056200;28;20166;-75
2023/10/14 04:11:59;;;;;;;8.85;1.85;;;11.40;99.90;;;;;;5069251;28;20413;-74
2023/10/14 04:14:27;;;;;;;13.77;2.20;;;11.40;99.90;;;;;;5073699;28;20037;-75
2023/10/14 04:19:44;;;;;;;16.20;2.15;;;11.40;99.90;;;;;;5073285;28;20036;-75
2023/10/14 04:22:38;;;;;;;;;;;11.40;99.90;;;;;;5070878;28;20036;-75
2023/10/14 04:25:18;;;;;;;10.50;1.70;;;11.40;99.90;;;;;;5070169;28;19923;-74
2023/10/14 04:31:06;;;;;;;11.38;2.35;;;11.30;99.90;;;;;;5073672;28;20501;-74
2023/10/14 04:35:57;;;;;;;8.70;1.83;;;11.30;99.90;;;;;;5073080;28;20489;-76
2023/10/14 04:38:28;;;;;;;9.85;1.73;;;11.30;99.90;;;;;;5071804;28;20036;-75
2023/10/14 04:40:58;;;;;;;12.13;2.03;;;11.20;99.90;;;;;;5084995;28;20032;-74
2023/10/14 04:46:12;;;;;;;13.45;2.15;;;11.20;99.90;;;;;;5073751;28;20068;-75
2023/10/14 04:48:38;;;;;;;12.65;2.30;;;11.10;99.90;;;;;;5069810;28;20041;-75
2023/10/14 04:51:15;;;;;;;10.45;2.22;;;11.50;99.90;;;;;;5089035;28;20036;-75
2023/10/14 04:53:44;;;;;;;;;;;11.10;99.90;;;;;;5074016;28;20463;-75
2023/10/14 04:56:21;;;;;;;17.50;2.35;;;11.00;99.90;;;;;;5072105;28;19927;-75
2023/10/14 04:58:52;;;;;;;13.65;1.85;;;11.00;99.90;;;;;;5053817;28;20036;-75
2023/10/14 05:01:18;;;;;;;12.77;1.98;;;11.00;99.90;;;;;;5055961;28;20454;-75
2023/10/14 05:03:47;;;;;;;11.50;1.98;;;11.00;99.90;;;;;;5073445;28;20037;-74
2023/10/14 05:08:44;;;;;;;11.02;2.03;;;11.00;99.90;;;;;;5072233;28;20052;-75
2023/10/14 05:11:12;;;;;;;12.57;2.30;;;11.00;99.90;;;;;;5055356;28;20570;-75
2023/10/14 05:13:39;;;;;;;12.07;2.17;;;11.00;99.90;;;;;;5072885;28;20048;-75
2023/10/14 05:16:21;;;;;;;13.45;2.40;;;10.90;99.90;;;;;;5055766;28;20041;-75
2023/10/14 05:19:00;;;;;;;13.20;2.13;;;10.90;99.90;;;;;;5064787;28;20492;-75
2023/10/14 05:21:42;;;;;;;8.02;2.33;;;10.90;99.90;;;;;;5071790;28;20080;-75
2023/10/14 05:24:09;;;;;;;9.38;1.75;;;10.90;99.90;;;;;;5068346;28;20400;-75
2023/10/14 05:26:48;;;;;;;10.80;2.20;;;10.80;99.90;;;;;;5068482;28;20371;-75
2023/10/14 05:29:18;;;;;;;6.20;1.88;;;11.70;99.90;;;;;;5072631;28;20507;-75
2023/10/14 05:31:44;;;;;;;12.00;2.15;;;10.80;99.90;;;;;;5069822;28;20071;-75
2023/10/14 05:34:10;;;;;;;13.52;1.90;;;10.80;99.90;;;;;;5071501;28;20504;-75
2023/10/14 05:36:36;;;;;;;12.20;2.15;;;10.70;99.90;;;;;;5072550;28;20032;-75
2023/10/14 05:39:03;;;;;;;13.50;1.67;;;10.70;99.90;;;;;;5072478;28;20040;-75
2023/10/14 05:41:30;;;;;;;16.77;2.13;;;10.70;99.90;;;;;;5071726;28;20036;-75
2023/10/14 05:43:56;;;;;;;11.20;2.20;;;10.70;99.90;;;;;;5054129;28;20029;-75
2023/10/14 05:46:21;;;;;;;9.07;1.67;;;10.70;99.90;;;;;;5072471;28;20135;-75
2023/10/14 05:48:52;;;;;;;12.43;2.20;;;10.70;99.90;;;;;;5072389;28;20480;-75
2023/10/14 05:51:22;;;;;;;14.40;1.90;;;10.70;99.90;;;;;;5071728;28;20314;-75
2023/10/14 05:53:48;;;;;;;13.80;2.13;;;10.70;99.90;;;;;;5072299;28;20062;-74
2023/10/14 05:56:14;;;;;;;12.45;2.20;;;10.70;99.90;;;;;;5072496;28;20477;-74
2023/10/14 05:58:46;;;;;;;18.20;2.92;;;10.70;99.90;;;;;;5072966;28;20046;-74
2023/10/14 06:01:14;;;;;;;13.73;2.15;;;10.60;99.90;;;;;;5073943;28;20083;-76
2023/10/14 06:03:41;;;;;;;12.57;1.83;;;10.70;99.90;;;;;;5074680;28;20063;-76
2023/10/14 06:06:10;;;;;;;14.35;2.40;;;11.50;99.90;;;;;;5070737;28;20110;-75
2023/10/14 06:08:40;;;;;;;12.32;2.28;;;10.40;99.90;;;;;;5071755;28;20067;-75
2023/10/14 06:11:06;;;;;;;19.65;2.67;;;10.60;99.90;;;;;;5070404;28;20497;-75
2023/10/14 06:13:37;;;;;;;12.35;2.13;;;10.60;99.90;;;;;;5070886;28;20045;-76
2023/10/14 06:16:12;;;;;;;14.38;2.65;;;10.60;99.90;;;;;;5069693;28;20222;-75
2023/10/14 06:18:43;;;;;;;14.45;2.75;;;10.60;99.90;;;;;;5066782;28;20477;-75
2023/10/14 06:21:10;;;;;;;21.35;2.40;;;10.50;99.90;;;;;;5050760;28;20041;-76
2023/10/14 06:23:39;;;;;;;15.93;2.67;;;11.30;99.90;;;;;;5046487;28;20115;-75
2023/10/14 06:26:07;;;;;;;11.30;2.03;;;10.50;99.90;;;;;;5071228;28;20040;-76
2023/10/14 06:28:33;;;;;;;18.75;2.38;;;10.50;99.90;;;;;;5064988;28;20481;-76
2023/10/14 06:31:04;;;;;;;13.15;2.25;;;10.50;99.90;;;;;;5070704;28;20374;-76
2023/10/14 06:33:30;;;;;;;15.95;2.72;;;10.50;99.90;;;;;;5064557;28;20052;-76
2023/10/14 06:36:03;;;;;;;14.32;2.65;;;10.50;99.90;;;;;;5067449;28;20041;-75
2023/10/14 06:38:33;;;;;;;16.38;2.63;;;10.30;99.90;;;;;;5072224;28;20032;-76
2023/10/14 06:41:01;;;;;;;9.77;1.80;;;10.50;99.90;;;;;;5071727;28;20043;-75
2023/10/14 06:43:33;;;;;;;10.10;2.42;;;10.50;99.90;;;;;;5052304;28;20047;-75
2023/10/14 06:46:04;;;;;;;13.57;2.25;;;10.40;99.90;;;;;;5066689;28;20041;-75
2023/10/14 06:48:30;;;;;;;16.63;2.83;;;10.50;99.90;;;;;;5061745;28;20040;-75
2023/10/14 06:50:58;;;;;;;15.63;2.80;;;10.50;99.90;;;;;;5047470;28;20039;-75
2023/10/14 06:53:29;;;;;;;19.83;2.70;;;10.40;99.90;;;;;;5072574;28;20029;-75
2023/10/14 06:55:56;;;;;;;15.53;2.63;;;10.50;99.90;;;;;;5071841;28;20397;-75
2023/10/14 06:58:27;;;;;;;14.73;2.25;;;10.50;99.90;;;;;;5063535;28;20064;-75
2023/10/14 07:00:53;;;;;;;14.37;2.30;;;10.50;99.90;;;;;;5073905;28;20036;-75
2023/10/14 07:03:18;;;;;;;21.08;2.90;;;10.50;99.90;;;;;;5064764;28;20551;-76
2023/10/14 07:05:56;;;;;;;15.68;3.03;;;10.60;99.90;;;;;;5071400;28;20044;-76
2023/10/14 07:08:23;;;;;;;12.70;2.30;;;10.60;99.90;;;;;;5054423;28;20124;-75
2023/10/14 07:10:50;;;;;;;19.90;2.70;;;10.60;99.90;;;;;;5072616;28;20157;-76
2023/10/14 07:13:17;;;;;;;13.52;2.47;;;10.60;99.90;;;;;;5071946;28;20399;-76
2023/10/14 07:15:44;;;;;;;14.93;2.13;;;10.70;99.90;;;;;;5071723;28;20043;-75
2023/10/14 07:18:13;;;;;;;14.35;2.35;;;10.70;99.90;;;;;;5070367;28;20056;-76
2023/10/14 07:20:45;;;;;;;13.90;2.20;;;10.70;99.90;;;;;;5068129;28;20075;-75
2023/10/14 07:23:11;;;;;;;10.23;2.53;;;10.70;99.90;;;;;;5073179;28;20048;-75
2023/10/14 07:25:40;;;;;;;17.05;2.13;;;10.70;99.90;;;;;;5072698;28;20048;-75
2023/10/14 07:28:15;;;;;;;17.85;3.22;;;10.80;99.90;;;;;;5057924;28;20040;-76
2023/10/14 07:30:50;;;;;;;16.95;2.63;;;10.80;99.90;;;;;;5070095;28;20055;-76
2023/10/14 07:33:22;;;;;;;18.15;3.28;;;10.80;99.90;;;;;;5074204;28;20041;-75
2023/10/14 07:35:48;;;;;;;12.90;2.30;;;10.80;99.90;;;;;;5070979;28;21363;-76
2023/10/14 07:38:13;;;;;;;13.57;2.75;;;10.90;99.90;;;;;;5074735;28;20034;-76
2023/10/14 07:40:39;;;;;;;15.57;2.40;;;10.90;99.90;;;;;;5067318;28;20045;-76
2023/10/14 07:43:13;;;;;;;22.20;2.53;;;11.00;99.90;;;;;;5074550;28;20471;-76
2023/10/14 07:45:46;;;;;;;16.67;2.38;;;11.00;99.90;;;;;;5073117;28;20044;-76
2023/10/14 07:48:13;;;;;;;15.75;2.35;;;11.00;99.90;;;;;;5075261;28;20248;-76
2023/10/14 07:50:44;;;;;;;18.33;2.45;;;11.10;99.90;;;;;;5040010;28;20048;-76
2023/10/14 07:53:13;;;;;;;15.00;2.83;;;11.10;99.90;;;;;;5067864;28;20062;-76
2023/10/14 07:55:51;;;;;;;16.38;2.65;;;11.20;99.90;;;;;;5056614;28;20044;-76
2023/10/14 07:58:23;;;;;;;20.80;2.63;;;11.20;99.90;;;;;;5069684;28;20133;-76
2023/10/14 08:00:57;;;;;;;13.90;2.40;;;11.30;99.90;;;;;;5050459;28;20036;-76
2023/10/14 08:03:26;;;;;;;15.50;2.97;;;11.40;99.90;;;;;;5073322;28;20488;-75
2023/10/14 08:05:54;;;;;;;14.57;3.05;;;11.40;99.90;;;;;;5072334;28;20131;-76
2023/10/14 08:08:22;;;;;;;16.73;2.60;;;11.50;99.90;;;;;;5072489;28;20050;-76
2023/10/14 08:10:57;;;;;;;18.08;2.45;;;11.50;99.90;;;;;;5056696;28;20048;-76
2023/10/14 08:13:23;;;;;;;14.80;3.03;;;11.50;99.90;;;;;;5074875;28;20050;-76
2023/10/14 08:15:50;;;;;;;12.68;2.53;;;11.50;99.90;;;;;;5072631;28;20127;-76
2023/10/14 08:18:16;;;;;;;18.17;2.80;;;11.60;99.90;;;;;;5074239;28;20032;-76
2023/10/14 08:20:45;;;;;;;14.73;3.40;;;11.60;99.90;;;;;;5070622;28;20424;-76
2023/10/14 08:23:14;;;;;;;17.50;2.88;;;11.70;99.90;;;;;;5067992;28;20048;-76
2023/10/14 08:25:44;;;;;;;15.02;2.72;;;11.80;99.90;;;;;;5072369;28;20542;-76
2023/10/14 08:28:10;;;;;;;19.20;2.67;;;11.80;99.90;;;;;;5074002;28;20040;-76
2023/10/14 08:30:46;;;;;;;19.17;2.85;;;11.90;99.90;;;;;;5072723;28;20055;-76
2023/10/14 08:33:16;;;;;;;15.52;2.30;;;12.00;99.90;;;;;;5056211;28;20078;-76
2023/10/14 08:35:42;;;;;;;12.05;2.30;;;11.80;99.90;;;;;;5073048;28;20489;-76
2023/10/14 08:38:17;;;;;;;19.65;3.00;;;12.10;99.90;;;;;;5072626;28;20037;-76
2023/10/14 08:40:44;;;;;;;17.10;3.28;;;12.10;99.90;;;;;;5067047;28;20044;-76
2023/10/14 08:43:16;;;;;;;16.40;2.88;;;12.10;99.90;;;;;;5071887;28;20072;-75
2023/10/14 08:46:05;;;;;;;12.10;2.30;;;12.10;99.90;;;;;;5072038;28;20054;-75
2023/10/14 08:48:32;;;;;;;7.30;1.60;;;12.00;99.90;;;;;;5073664;28;20041;-75
2023/10/14 08:50:58;;;;;;;13.43;1.88;;;11.80;99.90;;;;;;5055460;28;20493;-75
2023/10/14 08:53:29;;;;;;;10.05;2.35;;;11.60;99.90;;;;;;5049705;28;20041;-75
2023/10/14 08:55:58;;;;;;;9.45;1.85;;;11.50;99.90;;;;;;5050307;28;20041;-75
2023/10/14 08:58:24;;;;;;;8.60;1.67;;;11.70;99.90;;;;;;5052538;28;20072;-75
2023/10/14 09:00:54;;;;;;;11.02;1.60;;;11.30;99.90;;;;;;5073522;28;20037;-75
2023/10/14 09:03:21;;;;;;;12.32;2.00;;;11.40;99.90;;;;;;5073888;28;20040;-76
2023/10/14 09:05:47;;;;;;;11.98;2.00;;;11.30;99.90;;;;;;5076033;28;20067;-76
2023/10/14 09:08:27;;;;;;;9.48;1.90;;;11.40;99.90;;;;;;5069801;28;20504;-76
2023/10/14 09:11:03;;;;;;;13.63;2.30;;;11.40;99.90;;;;;;5061986;28;20420;-75
2023/10/14 09:13:33;;;;;;;13.15;2.10;;;11.60;99.90;;;;;;5069193;28;20040;-75
2023/10/14 09:15:59;;;;;;;12.77;1.80;;;12.00;99.90;;;;;;5072349;28;20499;-76
2023/10/14 09:18:27;;;;;;;12.85;2.83;;;11.90;99.90;;;;;;5062148;28;20040;-75
2023/10/14 09:20:56;;;;;;;23.10;3.13;;;11.90;99.90;;;;;;5065038;28;20040;-75
2023/10/14 09:23:39;;;;;;;12.95;2.53;;;12.00;99.90;;;;;;5049158;28;20604;-76
2023/10/14 09:26:05;;;;;;;13.00;2.20;;;12.10;99.90;;;;;;5069561;28;20036;-76
2023/10/14 09:28:35;;;;;;;14.48;2.63;;;12.20;99.90;;;;;;5069027;28;20040;-77
2023/10/14 09:31:07;;;;;;;11.02;2.30;;;12.20;99.90;;;;;;5067149;28;20036;-76
2023/10/14 09:33:36;;;;;;;16.45;3.38;;;12.30;99.90;;;;;;5070151;28;20033;-77
2023/10/14 09:36:11;;;;;;;11.90;1.95;;;12.30;99.90;;;;;;5069806;28;20098;-77
2023/10/14 09:38:38;;;;;;;10.18;2.10;;;12.40;99.90;;;;;;5070807;28;20397;-77
2023/10/14 09:41:07;;;;;;;13.07;1.98;;;12.50;99.90;;;;;;5062212;28;20396;-76
2023/10/14 09:43:39;;;;;;;9.65;1.70;;;12.70;99.90;;;;;;5047243;28;20036;-77
2023/10/14 09:46:08;;;;;;;13.23;1.92;;;12.70;99.90;;;;;;5062237;28;20033;-76
2023/10/14 09:48:39;;;;;;;15.07;2.20;;;12.80;99.90;;;;;;5052445;28;20062;-77
2023/10/14 09:51:06;;;;;;;11.90;2.65;;;12.90;99.90;;;;;;5070118;28;20086;-76
2023/10/14 09:53:36;;;;;;;17.55;2.58;;;13.10;99.90;;;;;;5052680;28;20032;-76
2023/10/14 09:56:10;;;;;;;12.20;2.88;;;12.80;99.90;;;;;;5064783;28;20517;-76
2023/10/14 09:58:46;;;;;;;11.60;2.00;;;12.80;99.90;;;;;;5063646;28;20047;-77
2023/10/14 10:01:16;;;;;;;17.33;3.08;;;12.70;99.90;;;;;;5063992;28;20038;-76
2023/10/14 10:04:00;;;;;;;10.30;1.90;;;12.70;99.90;;;;;;5066921;28;20044;-76
2023/10/14 10:06:35;;;;;;;12.50;2.33;;;12.70;99.90;;;;;;5072439;28;20039;-76
2023/10/14 10:09:04;;;;;;;13.55;2.58;;;12.70;99.90;;;;;;5071067;28;20048;-77
2023/10/14 10:11:33;;;;;;;8.38;1.80;;;12.80;99.90;;;;;;5071156;28;20090;-76
2023/10/14 10:13:59;;;;;;;9.23;1.50;;;12.70;99.90;;;;;;5051490;28;20039;-76
2023/10/14 10:16:31;;;;;;;7.05;1.30;;;12.60;99.90;;;;;;5069437;28;20048;-76
2023/10/14 10:18:58;;;;;;;9.60;1.42;;;12.60;99.90;;;;;;5065979;28;20101;-77
2023/10/14 10:21:40;;;;;;;11.25;2.03;;;12.50;99.90;;;;;;5065955;28;20048;-78
2023/10/14 10:24:09;;;;;;;11.00;2.05;;;12.60;99.90;;;;;;5046947;28;20028;-77
2023/10/14 10:27:03;;;;;;;12.38;2.13;;;12.80;99.90;;;;;;5066040;28;20044;-78
2023/10/14 10:29:34;;;;;;;16.02;1.88;;;13.00;99.90;;;;;;5069331;28;20034;-78
2023/10/14 10:32:13;;;;;;;12.52;1.90;;;13.30;99.90;;;;;;5086561;28;20414;-77
2023/10/14 10:35:06;;;;;;;7.57;1.45;;;13.60;99.90;;;;;;5049953;28;20527;-78
2023/10/14 10:37:54;;;;;;;10.88;2.20;;;13.80;99.90;;;;;;5062781;28;20039;-78
2023/10/14 10:40:28;;;;;;;10.68;2.05;;;14.10;99.90;;;;;;5049645;28;20134;-76
2023/10/14 10:43:09;;;;;;;11.10;2.10;;;14.30;99.90;;;;;;5068738;28;20044;-76
2023/10/14 10:45:42;;;;;;;8.73;1.90;;;14.50;99.90;;;;;;5070830;28;20044;-77
2023/10/14 10:48:14;;;;;;;10.98;2.25;;;14.60;99.90;;;;;;5047467;28;20405;-76
2023/10/14 10:50:41;;;;;;;8.63;2.10;;;14.30;99.90;;;;;;5067505;28;20439;-76
2023/10/14 10:53:07;;;;;;;7.18;1.58;;;14.00;99.90;;;;;;5068838;28;20040;-76
2023/10/14 10:55:37;;;;;;;10.60;1.90;;;13.80;99.90;;;;;;5069625;28;20578;-76
2023/10/14 10:58:04;;;;;;;9.68;1.65;;;13.80;99.90;;;;;;5068974;28;20039;-76
2023/10/14 11:00:31;;;;;;;9.63;2.03;;;13.90;99.90;;;;;;5089161;28;20494;-77
2023/10/14 11:03:01;;;;;;;9.82;1.73;;;14.10;99.90;;;;;;5069111;28;20130;-77
2023/10/14 11:05:28;;;;;;;10.75;1.52;;;14.40;99.90;;;;;;5065647;28;20096;-76
2023/10/14 11:07:55;;;;;;;12.15;2.28;;;14.60;99.90;;;;;;5065245;28;20029;-76
2023/10/14 11:10:27;;;;;;;5.22;1.20;;;14.90;99.90;;;;;;5068283;28;20610;-77
2023/10/14 11:12:56;;;;;;;12.85;1.73;;;14.60;99.90;;;;;;5065643;28;20036;-77
2023/10/14 11:15:24;;;;;;;6.15;1.42;;;14.50;99.90;;;;;;5067818;28;20040;-77
2023/10/14 11:17:56;;;;;;;6.85;1.52;;;14.20;99.90;;;;;;5067355;28;20043;-77
2023/10/14 11:20:26;;;;;;;7.93;1.60;;;14.10;99.90;;;;;;5062377;28;20082;-77
2023/10/14 11:22:55;;;;;;;7.70;2.10;;;14.00;99.90;;;;;;5066303;28;20040;-77
2023/10/14 11:25:21;;;;;;;10.00;1.70;;;14.10;99.90;;;;;;5047382;28;20079;-77
2023/10/14 11:27:47;;;;;;;7.22;1.98;;;14.10;99.90;;;;;;5066327;28;20094;-77
2023/10/14 11:30:15;;;;;;;9.57;1.55;;;14.10;99.90;;;;;;5069967;28;20044;-77
2023/10/14 11:32:50;;;;;;;9.40;1.63;;;14.00;99.90;;;;;;5070449;28;20032;-77
2023/10/14 11:35:18;;;;;;;8.27;1.80;;;13.90;99.90;;;;;;5068026;28;20051;-78
2023/10/14 11:37:50;;;;;;;5.53;1.50;;;13.90;99.90;;;;;;5061877;28;20124;-79
2023/10/14 11:40:16;;;;;;;8.73;1.85;;;13.90;99.90;;;;;;5046992;28;20102;-79
2023/10/14 11:42:42;;;;;;;10.85;1.85;;;13.90;99.90;;;;;;5069411;28;20032;-79
2023/10/14 11:45:08;;;;;;;8.15;1.67;;;13.90;99.90;;;;;;5074838;28;20041;-78
2023/10/14 11:47:38;;;;;;;8.95;1.83;;;13.70;99.90;;;;;;5065981;28;20574;-78
2023/10/14 11:50:11;;;;;;;8.93;1.60;;;13.60;99.90;;;;;;5068485;28;20194;-78
2023/10/14 11:52:44;;;;;;;8.65;2.20;;;13.50;99.90;;;;;;5053391;28;20066;-79
2023/10/14 11:55:16;;;;;;;9.07;1.45;;;13.60;99.90;;;;;;5077501;28;20037;-79
2023/10/14 11:57:48;;;;;;;8.90;2.20;;;13.80;99.90;;;;;;5074381;28;20517;-79
2023/10/14 12:00:20;;;;;;;7.38;1.75;;;14.00;99.90;;;;;;5050443;28;20036;-78
2023/10/14 12:02:47;;;;;;;12.00;1.98;;;14.10;99.90;;;;;;5050190;28;20037;-78
2023/10/14 12:05:16;;;;;;;13.45;2.15;;;14.20;99.90;;;;;;5071558;28;20064;-79
2023/10/14 12:07:44;;;;;;;8.45;1.60;;;14.20;99.90;;;;;;5070631;28;20048;-78
2023/10/14 12:10:10;;;;;;;8.52;1.67;;;14.10;99.90;;;;;;5073729;28;20460;-78
2023/10/14 12:12:39;;;;;;;10.48;1.83;;;13.90;99.90;;;;;;5073724;28;20039;-78
2023/10/14 12:15:06;;;;;;;7.20;1.55;;;13.90;99.90;;;;;;5055403;28;20070;-77
2023/10/14 12:17:38;;;;;;;10.75;2.05;;;14.00;99.90;;;;;;5063910;28;20043;-78
2023/10/14 12:20:06;;;;;;;11.20;2.10;;;14.00;99.90;;;;;;5064240;28;20097;-79
2023/10/14 12:22:32;;;;;;;9.68;2.38;;;14.00;99.90;;;;;;5066038;28;20064;-78
2023/10/14 12:24:59;;;;;;;13.60;2.53;;;14.60;99.90;;;;;;5067939;28;20048;-79
2023/10/14 12:27:25;;;;;;;11.50;2.03;;;13.80;99.90;;;;;;5041661;28;20032;-79
2023/10/14 12:29:52;;;;;;;11.23;1.88;;;14.10;99.90;;;;;;5061726;28;20409;-78
2023/10/14 12:32:18;;;;;;;12.05;1.67;;;13.90;99.90;;;;;;5065169;28;20040;-78
2023/10/14 12:34:46;;;;;;;7.57;1.50;;;14.00;99.90;;;;;;5066305;28;20044;-79
2023/10/14 12:37:18;;;;;;;8.70;1.83;;;14.20;99.90;;;;;;5066044;28;20443;-78
2023/10/14 12:39:55;;;;;;;6.75;1.45;;;14.40;99.90;;;;;;5058323;28;20054;-78
2023/10/14 12:42:38;;;;;;;5.97;2.13;;;14.60;99.90;;;;;;5046003;28;20037;-78
2023/10/14 12:45:11;;;;;;;5.53;1.50;;;14.80;99.90;;;;;;5040491;28;20044;-78
2023/10/14 12:47:38;;;;;;;6.93;1.63;;;14.90;99.90;;;;;;5062900;28;20132;-78
2023/10/14 12:50:04;;;;;;;9.18;1.60;;;14.90;99.90;;;;;;5060148;28;20523;-78
2023/10/14 12:52:33;;;;;;;7.40;1.83;;;15.00;99.90;;;;;;5059886;28;20049;-78
2023/10/14 12:54:58;;;;;;;7.57;1.77;;;14.90;99.90;;;;;;5061490;22;20053;-64
2023/10/14 12:57:24;;;;;;;11.30;1.80;;;14.70;99.90;;;;;;5037620;28;20334;-64
2023/10/14 12:59:49;;;;;;;8.70;1.80;;;14.50;99.90;;;;;;5030087;28;20045;-64
2023/10/14 13:02:17;;;;;;;8.90;1.88;;;14.40;99.90;;;;;;5039173;28;20044;-64
2023/10/14 13:04:44;;;;;;;13.07;2.05;;;14.40;99.90;;;;;;5029947;28;20860;-64
2023/10/14 13:07:10;;;;;;;10.73;2.42;;;14.40;99.90;;;;;;5046667;28;20041;-64
2023/10/14 13:09:38;;;;;;;11.85;2.78;;;14.50;99.90;;;;;;5041037;28;20041;-64
2023/10/14 13:12:18;;;;;;;12.65;2.13;;;14.40;99.90;;;;;;5029008;28;20091;-64
2023/10/14 13:14:45;;;;;;;11.23;1.90;;;14.30;99.90;;;;;;5031816;28;20054;-64
2023/10/14 13:17:11;;;;;;;9.35;2.83;;;14.10;99.90;;;;;;5029292;28;20044;-64
2023/10/14 13:19:37;;;;;;;9.70;2.50;;;13.90;99.90;;;;;;5038107;28;20032;-64
2023/10/14 13:22:09;;;;;;;12.63;2.45;;;13.60;99.90;;;;;;5020042;28;20099;-64
2023/10/14 13:24:36;;;;;;;12.38;2.50;;;13.60;99.90;;;;;;5013509;28;20176;-64
2023/10/14 13:27:02;;;;;;;10.35;2.35;;;13.50;99.90;;;;;;5030011;28;20049;-64
2023/10/14 13:29:27;;;;;;;9.15;2.00;;;13.40;99.90;;;;;;5014803;28;20038;-64
2023/10/14 13:31:53;;;;;;;11.80;2.40;;;13.40;99.90;;;;;;5035622;28;20083;-64
2023/10/14 13:34:19;;;;;;;12.10;2.15;;;13.40;99.90;;;;;;5031150;28;20107;-64
2023/10/14 13:36:45;;;;;;;14.52;2.33;;;13.50;99.90;;;;;;5040425;28;20042;-64